sensor_id;sensor_type;location;lat;lon;timestamp;temperature;humidity
42965;DHT22;28604;51.204;22.552;2023-02-28T00:00:22;-0.80;71.20
42965;DHT22;28604;51.204;22.552;2023-02-28T00:03:08;-0.80;71.30
42965;DHT22;28604;51.204;22.552;2023-02-28T00:05:34;-0.90;71.20
42965;DHT22;28604;51.204;22.552;2023-02-28T00:08:00;-0.90;71.30
42965;DHT22;28604;51.204;22.552;2023-02-28T00:10:29;-1.00;71.20
42965;DHT22;28604;51.204;22.552;2023-02-28T00:12:59;-1.00;71.20
42965;DHT22;28604;51.204;22.552;2023-02-28T00:15:26;-1.10;71.30
42965;DHT22;28604;51.204;22.552;2023-02-28T00:17:52;-1.10;71.30
42965;DHT22;28604;51.204;22.552;2023-02-28T00:20:19;-1.10;71.30
42965;DHT22;28604;51.204;22.552;2023-02-28T00:22:47;-1.10;71.20
42965;DHT22;28604;51.204;22.552;2023-02-28T00:25:17;-1.20;71.30
42965;DHT22;28604;51.204;22.552;2023-02-28T00:27:44;-1.30;71.20
42965;DHT22;28604;51.204;22.552;2023-02-28T00:30:14;-1.30;71.30
42965;DHT22;28604;51.204;22.552;2023-02-28T00:32:40;-1.30;71.40
42965;DHT22;28604;51.204;22.552;2023-02-28T00:35:07;-1.30;71.60
42965;DHT22;28604;51.204;22.552;2023-02-28T00:37:33;-1.30;71.60
42965;DHT22;28604;51.204;22.552;2023-02-28T00:40:00;-1.40;71.70
42965;DHT22;28604;51.204;22.552;2023-02-28T00:42:26;-1.40;71.80
42965;DHT22;28604;51.204;22.552;2023-02-28T00:44:52;-1.40;71.70
42965;DHT22;28604;51.204;22.552;2023-02-28T00:47:18;-1.50;71.70
42965;DHT22;28604;51.204;22.552;2023-02-28T00:49:44;-1.50;71.50
42965;DHT22;28604;51.204;22.552;2023-02-28T00:52:10;-1.50;71.30
42965;DHT22;28604;51.204;22.552;2023-02-28T00:54:36;-1.60;71.20
42965;DHT22;28604;51.204;22.552;2023-02-28T00:57:02;-1.60;71.30
42965;DHT22;28604;51.204;22.552;2023-02-28T00:59:28;-1.70;71.40
42965;DHT22;28604;51.204;22.552;2023-02-28T01:01:54;-1.70;71.50
42965;DHT22;28604;51.204;22.552;2023-02-28T01:04:21;-1.70;71.60
42965;DHT22;28604;51.204;22.552;2023-02-28T01:06:47;-1.80;71.70
42965;DHT22;28604;51.204;22.552;2023-02-28T01:09:14;-1.80;71.50
42965;DHT22;28604;51.204;22.552;2023-02-28T01:11:41;-1.80;71.50
42965;DHT22;28604;51.204;22.552;2023-02-28T01:14:15;-1.90;71.30
42965;DHT22;28604;51.204;22.552;2023-02-28T01:16:41;-1.90;71.50
42965;DHT22;28604;51.204;22.552;2023-02-28T01:19:10;-1.90;71.50
42965;DHT22;28604;51.204;22.552;2023-02-28T01:21:38;-1.90;72.00
42965;DHT22;28604;51.204;22.552;2023-02-28T01:24:05;-2.00;72.10
42965;DHT22;28604;51.204;22.552;2023-02-28T01:26:31;-2.00;72.10
42965;DHT22;28604;51.204;22.552;2023-02-28T01:28:57;-2.00;72.40
42965;DHT22;28604;51.204;22.552;2023-02-28T01:31:25;-2.00;72.60
42965;DHT22;28604;51.204;22.552;2023-02-28T01:33:51;-2.00;72.70
42965;DHT22;28604;51.204;22.552;2023-02-28T01:36:20;-2.00;72.50
42965;DHT22;28604;51.204;22.552;2023-02-28T01:38:46;-2.10;72.10
42965;DHT22;28604;51.204;22.552;2023-02-28T01:41:32;-2.10;71.90
42965;DHT22;28604;51.204;22.552;2023-02-28T01:44:04;-2.20;72.10
42965;DHT22;28604;51.204;22.552;2023-02-28T01:46:33;-2.20;72.10
42965;DHT22;28604;51.204;22.552;2023-02-28T01:51:48;-2.20;72.80
42965;DHT22;28604;51.204;22.552;2023-02-28T01:54:26;-2.20;72.50
42965;DHT22;28604;51.204;22.552;2023-02-28T01:57:06;-2.30;72.50
42965;DHT22;28604;51.204;22.552;2023-02-28T01:59:41;-2.30;72.30
42965;DHT22;28604;51.204;22.552;2023-02-28T02:02:20;-2.40;72.00
42965;DHT22;28604;51.204;22.552;2023-02-28T02:07:19;-2.40;72.10
42965;DHT22;28604;51.204;22.552;2023-02-28T02:09:45;-2.50;71.80
42965;DHT22;28604;51.204;22.552;2023-02-28T02:12:33;-2.50;72.00
42965;DHT22;28604;51.204;22.552;2023-02-28T02:15:09;-2.50;72.10
42965;DHT22;28604;51.204;22.552;2023-02-28T02:17:41;-2.50;72.20
42965;DHT22;28604;51.204;22.552;2023-02-28T02:23:33;-2.60;72.20
42965;DHT22;28604;51.204;22.552;2023-02-28T02:34:42;-2.70;72.80
42965;DHT22;28604;51.204;22.552;2023-02-28T02:37:20;-2.70;73.00
42965;DHT22;28604;51.204;22.552;2023-02-28T02:43:03;-2.70;72.70
42965;DHT22;28604;51.204;22.552;2023-02-28T02:45:49;-2.70;72.80
42965;DHT22;28604;51.204;22.552;2023-02-28T02:48:20;-2.80;72.70
42965;DHT22;28604;51.204;22.552;2023-02-28T02:50:52;-2.80;72.90
42965;DHT22;28604;51.204;22.552;2023-02-28T02:53:23;-2.80;72.90
42965;DHT22;28604;51.204;22.552;2023-02-28T02:55:51;-2.80;73.00
42965;DHT22;28604;51.204;22.552;2023-02-28T02:58:26;-2.80;73.10
42965;DHT22;28604;51.204;22.552;2023-02-28T03:00:56;-2.80;72.90
42965;DHT22;28604;51.204;22.552;2023-02-28T03:03:23;-2.80;72.80
42965;DHT22;28604;51.204;22.552;2023-02-28T03:05:56;-2.80;72.80
42965;DHT22;28604;51.204;22.552;2023-02-28T03:08:22;-2.80;72.90
42965;DHT22;28604;51.204;22.552;2023-02-28T03:10:51;-2.80;73.10
42965;DHT22;28604;51.204;22.552;2023-02-28T03:16:12;-2.80;73.20
42965;DHT22;28604;51.204;22.552;2023-02-28T03:26:58;-2.80;73.30
42965;DHT22;28604;51.204;22.552;2023-02-28T03:29:40;-2.80;73.30
42965;DHT22;28604;51.204;22.552;2023-02-28T03:32:19;-2.80;73.20
42965;DHT22;28604;51.204;22.552;2023-02-28T03:35:03;-2.80;73.30
42965;DHT22;28604;51.204;22.552;2023-02-28T03:37:36;-2.90;73.30
42965;DHT22;28604;51.204;22.552;2023-02-28T03:40:15;-2.90;73.40
42965;DHT22;28604;51.204;22.552;2023-02-28T03:42:46;-2.90;73.50
42965;DHT22;28604;51.204;22.552;2023-02-28T03:45:17;-2.90;73.50
42965;DHT22;28604;51.204;22.552;2023-02-28T03:47:52;-3.00;74.20
42965;DHT22;28604;51.204;22.552;2023-02-28T03:50:38;-2.90;73.70
42965;DHT22;28604;51.204;22.552;2023-02-28T03:53:11;-3.00;73.60
42965;DHT22;28604;51.204;22.552;2023-02-28T03:56:01;-3.00;73.70
42965;DHT22;28604;51.204;22.552;2023-02-28T03:58:53;-2.90;73.70
42965;DHT22;28604;51.204;22.552;2023-02-28T04:01:38;-2.90;73.80
42965;DHT22;28604;51.204;22.552;2023-02-28T04:04:04;-3.00;73.80
42965;DHT22;28604;51.204;22.552;2023-02-28T04:06:32;-2.90;73.90
42965;DHT22;28604;51.204;22.552;2023-02-28T04:08:59;-2.90;74.00
42965;DHT22;28604;51.204;22.552;2023-02-28T04:11:51;-2.90;74.00
42965;DHT22;28604;51.204;22.552;2023-02-28T04:14:18;-2.90;74.10
42965;DHT22;28604;51.204;22.552;2023-02-28T04:16:44;-2.90;74.20
42965;DHT22;28604;51.204;22.552;2023-02-28T04:19:12;-2.90;74.10
42965;DHT22;28604;51.204;22.552;2023-02-28T04:21:41;-2.90;74.20
42965;DHT22;28604;51.204;22.552;2023-02-28T04:24:09;-2.90;74.10
42965;DHT22;28604;51.204;22.552;2023-02-28T04:26:41;-2.80;74.20
42965;DHT22;28604;51.204;22.552;2023-02-28T04:29:11;-2.80;74.10
42965;DHT22;28604;51.204;22.552;2023-02-28T04:31:38;-2.80;74.00
42965;DHT22;28604;51.204;22.552;2023-02-28T04:34:05;-2.90;73.70
42965;DHT22;28604;51.204;22.552;2023-02-28T04:36:31;-2.80;73.80
42965;DHT22;28604;51.204;22.552;2023-02-28T04:38:57;-2.80;73.70
42965;DHT22;28604;51.204;22.552;2023-02-28T04:41:23;-2.80;73.90
42965;DHT22;28604;51.204;22.552;2023-02-28T04:43:50;-2.80;74.20
42965;DHT22;28604;51.204;22.552;2023-02-28T04:46:17;-2.80;74.10
42965;DHT22;28604;51.204;22.552;2023-02-28T04:48:44;-2.80;74.30
42965;DHT22;28604;51.204;22.552;2023-02-28T04:51:12;-2.80;74.30
42965;DHT22;28604;51.204;22.552;2023-02-28T04:53:40;-2.80;74.30
42965;DHT22;28604;51.204;22.552;2023-02-28T04:56:06;-2.80;74.40
42965;DHT22;28604;51.204;22.552;2023-02-28T04:58:33;-2.80;74.40
42965;DHT22;28604;51.204;22.552;2023-02-28T05:01:16;-2.80;74.40
42965;DHT22;28604;51.204;22.552;2023-02-28T05:03:42;-2.80;74.20
42965;DHT22;28604;51.204;22.552;2023-02-28T05:06:09;-2.80;74.30
42965;DHT22;28604;51.204;22.552;2023-02-28T05:08:36;-2.80;74.20
42965;DHT22;28604;51.204;22.552;2023-02-28T05:11:02;-2.80;74.30
42965;DHT22;28604;51.204;22.552;2023-02-28T05:13:28;-2.80;74.10
42965;DHT22;28604;51.204;22.552;2023-02-28T05:15:55;-2.80;74.00
42965;DHT22;28604;51.204;22.552;2023-02-28T05:18:21;-2.80;74.00
42965;DHT22;28604;51.204;22.552;2023-02-28T05:20:47;-2.80;74.10
42965;DHT22;28604;51.204;22.552;2023-02-28T05:23:14;-2.80;74.00
42965;DHT22;28604;51.204;22.552;2023-02-28T05:25:41;-2.90;74.00
42965;DHT22;28604;51.204;22.552;2023-02-28T05:28:07;-2.90;74.00
42965;DHT22;28604;51.204;22.552;2023-02-28T05:30:33;-2.90;74.20
42965;DHT22;28604;51.204;22.552;2023-02-28T05:32:59;-2.90;74.40
42965;DHT22;28604;51.204;22.552;2023-02-28T05:35:26;-2.90;74.40
42965;DHT22;28604;51.204;22.552;2023-02-28T05:37:52;-2.80;74.50
42965;DHT22;28604;51.204;22.552;2023-02-28T05:40:18;-2.80;74.90
42965;DHT22;28604;51.204;22.552;2023-02-28T05:42:46;-2.90;74.90
42965;DHT22;28604;51.204;22.552;2023-02-28T05:45:12;-2.80;75.00
42965;DHT22;28604;51.204;22.552;2023-02-28T05:47:38;-2.80;74.60
42965;DHT22;28604;51.204;22.552;2023-02-28T05:50:05;-2.80;75.00
42965;DHT22;28604;51.204;22.552;2023-02-28T05:52:31;-2.80;75.00
42965;DHT22;28604;51.204;22.552;2023-02-28T05:54:58;-2.70;75.20
42965;DHT22;28604;51.204;22.552;2023-02-28T05:57:24;-2.70;75.60
42965;DHT22;28604;51.204;22.552;2023-02-28T05:59:50;-2.60;75.50
42965;DHT22;28604;51.204;22.552;2023-02-28T06:02:17;-2.50;76.30
42965;DHT22;28604;51.204;22.552;2023-02-28T06:04:43;-2.50;77.30
42965;DHT22;28604;51.204;22.552;2023-02-28T06:07:09;-2.30;76.20
42965;DHT22;28604;51.204;22.552;2023-02-28T06:09:36;-2.20;76.30
42965;DHT22;28604;51.204;22.552;2023-02-28T06:12:04;-2.00;77.40
42965;DHT22;28604;51.204;22.552;2023-02-28T06:14:32;-1.80;77.20
42965;DHT22;28604;51.204;22.552;2023-02-28T06:16:59;-1.70;77.80
42965;DHT22;28604;51.204;22.552;2023-02-28T06:19:26;-1.50;78.70
42965;DHT22;28604;51.204;22.552;2023-02-28T06:21:53;-1.20;78.90
42965;DHT22;28604;51.204;22.552;2023-02-28T06:24:21;-1.00;78.20
42965;DHT22;28604;51.204;22.552;2023-02-28T06:26:47;-0.80;77.80
42965;DHT22;28604;51.204;22.552;2023-02-28T06:29:14;-0.60;77.50
42965;DHT22;28604;51.204;22.552;2023-02-28T06:31:43;-0.40;76.70
42965;DHT22;28604;51.204;22.552;2023-02-28T06:34:10;-0.20;76.30
42965;DHT22;28604;51.204;22.552;2023-02-28T06:36:38;-0.20;76.00
42965;DHT22;28604;51.204;22.552;2023-02-28T06:39:04;0.00;76.00
42965;DHT22;28604;51.204;22.552;2023-02-28T06:41:30;0.10;75.80
42965;DHT22;28604;51.204;22.552;2023-02-28T06:43:57;0.20;75.40
42965;DHT22;28604;51.204;22.552;2023-02-28T06:46:23;0.30;75.30
42965;DHT22;28604;51.204;22.552;2023-02-28T06:48:49;0.40;75.20
42965;DHT22;28604;51.204;22.552;2023-02-28T06:51:19;0.50;75.00
42965;DHT22;28604;51.204;22.552;2023-02-28T06:53:48;0.70;75.20
42965;DHT22;28604;51.204;22.552;2023-02-28T06:56:15;0.80;75.10
42965;DHT22;28604;51.204;22.552;2023-02-28T06:58:46;1.00;74.60
42965;DHT22;28604;51.204;22.552;2023-02-28T07:01:13;1.20;73.70
42965;DHT22;28604;51.204;22.552;2023-02-28T07:03:39;1.40;73.80
42965;DHT22;28604;51.204;22.552;2023-02-28T07:06:06;1.60;73.80
42965;DHT22;28604;51.204;22.552;2023-02-28T07:08:33;1.80;73.40
42965;DHT22;28604;51.204;22.552;2023-02-28T07:11:00;2.00;72.70
42965;DHT22;28604;51.204;22.552;2023-02-28T07:13:26;2.20;71.80
42965;DHT22;28604;51.204;22.552;2023-02-28T07:16:04;2.40;71.90
42965;DHT22;28604;51.204;22.552;2023-02-28T07:18:31;2.70;70.00
42965;DHT22;28604;51.204;22.552;2023-02-28T07:20:57;3.00;70.00
42965;DHT22;28604;51.204;22.552;2023-02-28T07:23:23;3.20;69.40
42965;DHT22;28604;51.204;22.552;2023-02-28T07:25:50;3.60;67.70
42965;DHT22;28604;51.204;22.552;2023-02-28T07:28:16;3.90;69.00
42965;DHT22;28604;51.204;22.552;2023-02-28T07:30:42;4.10;68.00
42965;DHT22;28604;51.204;22.552;2023-02-28T07:33:08;4.50;68.40
42965;DHT22;28604;51.204;22.552;2023-02-28T07:35:34;4.90;66.90
42965;DHT22;28604;51.204;22.552;2023-02-28T07:38:01;5.30;65.10
42965;DHT22;28604;51.204;22.552;2023-02-28T07:40:28;5.60;65.70
42965;DHT22;28604;51.204;22.552;2023-02-28T07:42:54;6.00;64.00
42965;DHT22;28604;51.204;22.552;2023-02-28T07:45:21;6.20;62.40
42965;DHT22;28604;51.204;22.552;2023-02-28T07:47:47;6.60;65.60
42965;DHT22;28604;51.204;22.552;2023-02-28T07:50:15;6.90;61.50
42965;DHT22;28604;51.204;22.552;2023-02-28T07:52:41;7.10;60.90
42965;DHT22;28604;51.204;22.552;2023-02-28T07:55:09;7.50;60.90
42965;DHT22;28604;51.204;22.552;2023-02-28T07:57:36;7.70;59.80
42965;DHT22;28604;51.204;22.552;2023-02-28T08:00:04;8.00;63.20
42965;DHT22;28604;51.204;22.552;2023-02-28T08:02:37;8.20;59.30
42965;DHT22;28604;51.204;22.552;2023-02-28T08:05:04;8.50;61.00
42965;DHT22;28604;51.204;22.552;2023-02-28T08:07:30;8.70;58.90
42965;DHT22;28604;51.204;22.552;2023-02-28T08:09:55;9.20;59.20
42965;DHT22;28604;51.204;22.552;2023-02-28T08:12:22;9.50;57.30
42965;DHT22;28604;51.204;22.552;2023-02-28T08:14:47;9.70;56.40
42965;DHT22;28604;51.204;22.552;2023-02-28T08:17:13;10.10;57.60
42965;DHT22;28604;51.204;22.552;2023-02-28T08:19:39;10.40;59.00
42965;DHT22;28604;51.204;22.552;2023-02-28T08:22:05;10.60;53.60
42965;DHT22;28604;51.204;22.552;2023-02-28T08:24:31;10.80;55.00
42965;DHT22;28604;51.204;22.552;2023-02-28T08:26:57;11.20;53.50
42965;DHT22;28604;51.204;22.552;2023-02-28T08:29:23;11.30;54.60
42965;DHT22;28604;51.204;22.552;2023-02-28T08:31:49;11.50;56.70
42965;DHT22;28604;51.204;22.552;2023-02-28T08:34:16;11.60;52.60
42965;DHT22;28604;51.204;22.552;2023-02-28T08:36:42;11.50;52.10
42965;DHT22;28604;51.204;22.552;2023-02-28T08:39:10;11.60;50.60
42965;DHT22;28604;51.204;22.552;2023-02-28T08:41:37;11.90;53.60
42965;DHT22;28604;51.204;22.552;2023-02-28T08:44:03;12.20;55.40
42965;DHT22;28604;51.204;22.552;2023-02-28T08:46:29;12.40;53.80
42965;DHT22;28604;51.204;22.552;2023-02-28T08:48:56;12.70;49.50
42965;DHT22;28604;51.204;22.552;2023-02-28T08:51:26;13.00;49.20
42965;DHT22;28604;51.204;22.552;2023-02-28T08:53:57;13.40;53.10
42965;DHT22;28604;51.204;22.552;2023-02-28T08:56:24;13.60;48.70
42965;DHT22;28604;51.204;22.552;2023-02-28T08:58:50;13.80;48.00
42965;DHT22;28604;51.204;22.552;2023-02-28T09:01:19;14.10;47.20
42965;DHT22;28604;51.204;22.552;2023-02-28T09:03:46;14.20;46.20
42965;DHT22;28604;51.204;22.552;2023-02-28T09:06:14;14.50;46.60
42965;DHT22;28604;51.204;22.552;2023-02-28T09:08:41;14.70;46.00
42965;DHT22;28604;51.204;22.552;2023-02-28T09:11:07;14.80;49.30
42965;DHT22;28604;51.204;22.552;2023-02-28T09:13:33;15.00;45.90
42965;DHT22;28604;51.204;22.552;2023-02-28T09:16:02;15.10;45.40
42965;DHT22;28604;51.204;22.552;2023-02-28T09:18:29;15.30;45.30
42965;DHT22;28604;51.204;22.552;2023-02-28T09:20:55;15.40;46.10
42965;DHT22;28604;51.204;22.552;2023-02-28T09:23:21;15.50;44.70
42965;DHT22;28604;51.204;22.552;2023-02-28T09:25:52;15.20;47.00
42965;DHT22;28604;51.204;22.552;2023-02-28T09:28:18;15.20;47.10
42965;DHT22;28604;51.204;22.552;2023-02-28T09:30:47;15.10;46.10
42965;DHT22;28604;51.204;22.552;2023-02-28T09:33:16;15.20;46.80
42965;DHT22;28604;51.204;22.552;2023-02-28T09:35:42;15.30;45.60
42965;DHT22;28604;51.204;22.552;2023-02-28T09:38:09;15.40;43.70
42965;DHT22;28604;51.204;22.552;2023-02-28T09:40:56;15.40;44.10
42965;DHT22;28604;51.204;22.552;2023-02-28T09:43:27;15.50;44.30
42965;DHT22;28604;51.204;22.552;2023-02-28T09:48:33;15.60;44.10
42965;DHT22;28604;51.204;22.552;2023-02-28T09:53:47;15.60;42.70
42965;DHT22;28604;51.204;22.552;2023-02-28T09:56:20;15.50;42.80
42965;DHT22;28604;51.204;22.552;2023-02-28T10:01:57;15.10;45.30
42965;DHT22;28604;51.204;22.552;2023-02-28T10:04:51;15.00;42.70
42965;DHT22;28604;51.204;22.552;2023-02-28T10:10:33;14.80;42.00
42965;DHT22;28604;51.204;22.552;2023-02-28T10:13:05;14.90;44.80
42965;DHT22;28604;51.204;22.552;2023-02-28T10:15:34;14.80;42.40
42965;DHT22;28604;51.204;22.552;2023-02-28T10:18:05;14.80;42.50
42965;DHT22;28604;51.204;22.552;2023-02-28T10:20:34;14.90;44.40
42965;DHT22;28604;51.204;22.552;2023-02-28T10:23:19;15.00;43.70
42965;DHT22;28604;51.204;22.552;2023-02-28T10:25:53;15.10;42.50
42965;DHT22;28604;51.204;22.552;2023-02-28T10:28:20;15.20;42.80
42965;DHT22;28604;51.204;22.552;2023-02-28T10:30:50;15.30;42.80
42965;DHT22;28604;51.204;22.552;2023-02-28T10:33:21;15.30;42.50
42965;DHT22;28604;51.204;22.552;2023-02-28T10:35:47;15.20;42.50
42965;DHT22;28604;51.204;22.552;2023-02-28T10:38:18;15.00;43.20
42965;DHT22;28604;51.204;22.552;2023-02-28T10:40:45;14.90;43.20
42965;DHT22;28604;51.204;22.552;2023-02-28T10:46:02;14.80;42.60
42965;DHT22;28604;51.204;22.552;2023-02-28T10:48:44;14.80;42.60
42965;DHT22;28604;51.204;22.552;2023-02-28T10:51:13;14.80;43.00
42965;DHT22;28604;51.204;22.552;2023-02-28T11:01:24;14.10;43.90
42965;DHT22;28604;51.204;22.552;2023-02-28T11:03:52;14.10;44.00
42965;DHT22;28604;51.204;22.552;2023-02-28T11:06:24;14.10;45.30
42965;DHT22;28604;51.204;22.552;2023-02-28T11:08:53;14.10;44.80
42965;DHT22;28604;51.204;22.552;2023-02-28T11:11:22;14.20;44.10
42965;DHT22;28604;51.204;22.552;2023-02-28T11:13:53;14.30;43.70
42965;DHT22;28604;51.204;22.552;2023-02-28T11:16:20;14.30;43.70
42965;DHT22;28604;51.204;22.552;2023-02-28T11:18:52;14.40;44.00
42965;DHT22;28604;51.204;22.552;2023-02-28T11:21:28;14.40;45.30
42965;DHT22;28604;51.204;22.552;2023-02-28T11:24:22;14.20;44.50
42965;DHT22;28604;51.204;22.552;2023-02-28T11:26:49;14.00;43.00
42965;DHT22;28604;51.204;22.552;2023-02-28T11:29:25;14.00;44.30
42965;DHT22;28604;51.204;22.552;2023-02-28T11:32:15;14.00;43.60
42965;DHT22;28604;51.204;22.552;2023-02-28T11:34:44;14.10;43.30
42965;DHT22;28604;51.204;22.552;2023-02-28T11:37:18;13.90;44.50
42965;DHT22;28604;51.204;22.552;2023-02-28T11:39:45;13.90;46.30
42965;DHT22;28604;51.204;22.552;2023-02-28T11:42:23;13.80;43.90
42965;DHT22;28604;51.204;22.552;2023-02-28T11:45:03;13.80;44.00
42965;DHT22;28604;51.204;22.552;2023-02-28T11:47:38;13.60;43.50
42965;DHT22;28604;51.204;22.552;2023-02-28T11:50:34;13.60;45.00
42965;DHT22;28604;51.204;22.552;2023-02-28T11:53:16;13.40;44.00
42965;DHT22;28604;51.204;22.552;2023-02-28T11:55:59;13.40;44.40
42965;DHT22;28604;51.204;22.552;2023-02-28T12:09:47;12.90;46.10
42965;DHT22;28604;51.204;22.552;2023-02-28T12:12:23;13.10;46.20
42965;DHT22;28604;51.204;22.552;2023-02-28T12:17:47;13.10;45.00
42965;DHT22;28604;51.204;22.552;2023-02-28T12:23:26;13.10;45.80
42965;DHT22;28604;51.204;22.552;2023-02-28T12:26:18;13.10;46.60
42965;DHT22;28604;51.204;22.552;2023-02-28T12:29:08;13.10;46.50
42965;DHT22;28604;51.204;22.552;2023-02-28T12:31:40;13.00;46.30
42965;DHT22;28604;51.204;22.552;2023-02-28T12:34:13;12.90;47.60
42965;DHT22;28604;51.204;22.552;2023-02-28T12:36:43;12.60;46.90
42965;DHT22;28604;51.204;22.552;2023-02-28T12:39:11;12.60;46.30
42965;DHT22;28604;51.204;22.552;2023-02-28T12:41:48;12.50;46.10
42965;DHT22;28604;51.204;22.552;2023-02-28T12:44:40;12.40;45.40
42965;DHT22;28604;51.204;22.552;2023-02-28T12:47:14;12.50;46.40
42965;DHT22;28604;51.204;22.552;2023-02-28T12:53:13;12.50;46.20
42965;DHT22;28604;51.204;22.552;2023-02-28T13:07:10;12.30;45.90
42965;DHT22;28604;51.204;22.552;2023-02-28T13:09:40;12.20;48.30
42965;DHT22;28604;51.204;22.552;2023-02-28T13:12:16;12.10;47.70
42965;DHT22;28604;51.204;22.552;2023-02-28T13:14:42;12.00;46.40
42965;DHT22;28604;51.204;22.552;2023-02-28T13:19:37;11.90;47.30
42965;DHT22;28604;51.204;22.552;2023-02-28T13:22:05;11.90;47.30
42965;DHT22;28604;51.204;22.552;2023-02-28T13:24:50;11.70;47.50
42965;DHT22;28604;51.204;22.552;2023-02-28T13:27:38;11.70;48.00
42965;DHT22;28604;51.204;22.552;2023-02-28T13:33:29;11.70;46.90
42965;DHT22;28604;51.204;22.552;2023-02-28T13:38:53;11.60;47.80
42965;DHT22;28604;51.204;22.552;2023-02-28T13:44:08;11.50;47.80
42965;DHT22;28604;51.204;22.552;2023-02-28T13:49:32;11.40;48.30
42965;DHT22;28604;51.204;22.552;2023-02-28T13:57:33;11.20;47.90
42965;DHT22;28604;51.204;22.552;2023-02-28T14:00:06;11.10;48.50
42965;DHT22;28604;51.204;22.552;2023-02-28T14:05:34;11.00;47.70
42965;DHT22;28604;51.204;22.552;2023-02-28T14:08:14;10.90;48.60
42965;DHT22;28604;51.204;22.552;2023-02-28T14:10:46;10.80;48.80
42965;DHT22;28604;51.204;22.552;2023-02-28T14:15:59;10.90;49.10
42965;DHT22;28604;51.204;22.552;2023-02-28T14:18:36;10.80;48.60
42965;DHT22;28604;51.204;22.552;2023-02-28T14:21:21;10.70;49.30
42965;DHT22;28604;51.204;22.552;2023-02-28T14:27:06;10.70;48.00
42965;DHT22;28604;51.204;22.552;2023-02-28T14:35:26;10.40;50.50
42965;DHT22;28604;51.204;22.552;2023-02-28T14:37:55;10.30;49.80
42965;DHT22;28604;51.204;22.552;2023-02-28T14:40:33;10.20;49.20
42965;DHT22;28604;51.204;22.552;2023-02-28T14:43:05;10.20;49.50
42965;DHT22;28604;51.204;22.552;2023-02-28T14:45:33;10.10;49.20
42965;DHT22;28604;51.204;22.552;2023-02-28T14:48:01;10.00;49.40
42965;DHT22;28604;51.204;22.552;2023-02-28T14:50:34;10.00;50.20
42965;DHT22;28604;51.204;22.552;2023-02-28T14:53:01;9.90;49.40
42965;DHT22;28604;51.204;22.552;2023-02-28T14:55:34;9.90;49.50
42965;DHT22;28604;51.204;22.552;2023-02-28T14:58:04;9.80;49.60
42965;DHT22;28604;51.204;22.552;2023-02-28T15:00:36;9.70;49.30
42965;DHT22;28604;51.204;22.552;2023-02-28T15:03:19;9.60;50.50
42965;DHT22;28604;51.204;22.552;2023-02-28T15:05:57;9.50;50.00
42965;DHT22;28604;51.204;22.552;2023-02-28T15:08:24;9.40;49.90
42965;DHT22;28604;51.204;22.552;2023-02-28T15:10:56;9.30;50.20
42965;DHT22;28604;51.204;22.552;2023-02-28T15:13:34;9.20;50.40
42965;DHT22;28604;51.204;22.552;2023-02-28T15:16:05;9.10;50.30
42965;DHT22;28604;51.204;22.552;2023-02-28T15:18:50;8.90;50.60
42965;DHT22;28604;51.204;22.552;2023-02-28T15:26:41;8.60;51.10
42965;DHT22;28604;51.204;22.552;2023-02-28T15:29:22;8.50;51.40
42965;DHT22;28604;51.204;22.552;2023-02-28T15:31:51;8.40;51.10
42965;DHT22;28604;51.204;22.552;2023-02-28T15:34:38;8.30;51.40
42965;DHT22;28604;51.204;22.552;2023-02-28T15:39:48;8.00;52.30
42965;DHT22;28604;51.204;22.552;2023-02-28T15:42:22;8.00;52.50
42965;DHT22;28604;51.204;22.552;2023-02-28T15:44:49;7.80;52.60
42965;DHT22;28604;51.204;22.552;2023-02-28T15:47:21;7.70;52.90
42965;DHT22;28604;51.204;22.552;2023-02-28T15:49:55;7.60;52.90
42965;DHT22;28604;51.204;22.552;2023-02-28T15:55:17;7.40;53.70
42965;DHT22;28604;51.204;22.552;2023-02-28T15:57:44;7.30;53.80
42965;DHT22;28604;51.204;22.552;2023-02-28T16:00:19;7.10;53.80
42965;DHT22;28604;51.204;22.552;2023-02-28T16:02:46;7.00;54.90
42965;DHT22;28604;51.204;22.552;2023-02-28T16:05:18;6.70;54.70
42965;DHT22;28604;51.204;22.552;2023-02-28T16:07:44;6.60;55.00
42965;DHT22;28604;51.204;22.552;2023-02-28T16:10:12;6.50;55.60
42965;DHT22;28604;51.204;22.552;2023-02-28T16:12:40;6.30;55.00
42965;DHT22;28604;51.204;22.552;2023-02-28T16:17:47;6.00;55.50
42965;DHT22;28604;51.204;22.552;2023-02-28T16:20:15;5.80;56.00
42965;DHT22;28604;51.204;22.552;2023-02-28T16:22:42;5.70;55.90
42965;DHT22;28604;51.204;22.552;2023-02-28T16:25:16;5.60;56.30
42965;DHT22;28604;51.204;22.552;2023-02-28T16:27:43;5.50;56.60
42965;DHT22;28604;51.204;22.552;2023-02-28T16:30:24;5.30;56.90
42965;DHT22;28604;51.204;22.552;2023-02-28T16:32:53;5.20;57.30
42965;DHT22;28604;51.204;22.552;2023-02-28T16:35:20;5.10;57.90
42965;DHT22;28604;51.204;22.552;2023-02-28T16:37:46;4.90;58.00
42965;DHT22;28604;51.204;22.552;2023-02-28T16:40:23;4.80;58.20
42965;DHT22;28604;51.204;22.552;2023-02-28T16:42:55;4.70;58.50
42965;DHT22;28604;51.204;22.552;2023-02-28T16:45:25;4.60;58.50
42965;DHT22;28604;51.204;22.552;2023-02-28T16:47:52;4.40;58.90
42965;DHT22;28604;51.204;22.552;2023-02-28T16:50:24;4.30;59.10
42965;DHT22;28604;51.204;22.552;2023-02-28T16:52:51;4.30;59.50
42965;DHT22;28604;51.204;22.552;2023-02-28T16:55:22;4.20;59.90
42965;DHT22;28604;51.204;22.552;2023-02-28T16:57:52;4.10;60.20
42965;DHT22;28604;51.204;22.552;2023-02-28T17:00:18;4.00;60.50
42965;DHT22;28604;51.204;22.552;2023-02-28T17:02:44;3.80;60.30
42965;DHT22;28604;51.204;22.552;2023-02-28T17:05:11;3.70;60.80
42965;DHT22;28604;51.204;22.552;2023-02-28T17:07:38;3.60;61.00
42965;DHT22;28604;51.204;22.552;2023-02-28T17:12:39;3.50;60.80
42965;DHT22;28604;51.204;22.552;2023-02-28T17:15:06;3.40;60.80
42965;DHT22;28604;51.204;22.552;2023-02-28T17:17:32;3.30;60.50
42965;DHT22;28604;51.204;22.552;2023-02-28T17:19:58;3.20;60.50
42965;DHT22;28604;51.204;22.552;2023-02-28T17:22:24;3.20;60.40
42965;DHT22;28604;51.204;22.552;2023-02-28T17:24:52;3.10;60.70
42965;DHT22;28604;51.204;22.552;2023-02-28T17:27:21;3.00;61.10
42965;DHT22;28604;51.204;22.552;2023-02-28T17:29:47;2.90;60.90
42965;DHT22;28604;51.204;22.552;2023-02-28T17:32:13;2.80;61.10
42965;DHT22;28604;51.204;22.552;2023-02-28T17:34:40;2.70;61.30
42965;DHT22;28604;51.204;22.552;2023-02-28T17:37:09;2.70;60.80
42965;DHT22;28604;51.204;22.552;2023-02-28T17:39:35;2.60;61.00
42965;DHT22;28604;51.204;22.552;2023-02-28T17:42:01;2.50;61.00
42965;DHT22;28604;51.204;22.552;2023-02-28T17:44:27;2.40;61.20
42965;DHT22;28604;51.204;22.552;2023-02-28T17:46:54;2.40;60.80
42965;DHT22;28604;51.204;22.552;2023-02-28T17:49:21;2.40;60.60
42965;DHT22;28604;51.204;22.552;2023-02-28T17:51:48;2.30;60.40
42965;DHT22;28604;51.204;22.552;2023-02-28T17:54:14;2.20;60.20